createdAt,value
2017-10-05T00:00:49.347Z,12.60
2017-10-05T00:01:51.824Z,12.70
2017-10-05T00:02:54.320Z,12.70
2017-10-05T00:03:56.891Z,12.80
2017-10-05T00:04:59.475Z,12.70
2017-10-05T00:06:01.975Z,12.70
2017-10-05T00:07:04.464Z,12.70
2017-10-05T00:08:07.707Z,12.80
2017-10-05T00:09:10.337Z,12.80
2017-10-05T00:10:12.877Z,12.90
2017-10-05T00:11:16.292Z,12.90
2017-10-05T00:12:18.875Z,12.90
2017-10-05T00:13:21.354Z,13.10
2017-10-05T00:14:23.834Z,13.00
2017-10-05T00:15:26.344Z,13.10
2017-10-05T00:16:29.645Z,13.20
2017-10-05T00:17:32.206Z,13.20
2017-10-05T00:18:34.774Z,13.10
2017-10-05T00:19:37.263Z,13.10
2017-10-05T00:20:39.862Z,13.00
2017-10-05T00:21:43.187Z,13.10
2017-10-05T00:22:46.575Z,13.00
2017-10-05T00:23:49.055Z,13.00
2017-10-05T00:24:51.540Z,12.90
2017-10-05T00:25:54.019Z,12.90
2017-10-05T00:26:56.557Z,12.90
2017-10-05T00:27:59.153Z,12.90
2017-10-05T00:29:01.772Z,12.80
2017-10-05T00:30:04.243Z,12.70
2017-10-05T00:31:06.811Z,12.70
2017-10-05T00:32:09.303Z,12.70
2017-10-05T00:33:11.833Z,12.70
2017-10-05T00:34:14.328Z,12.70
2017-10-05T00:35:16.920Z,12.70
2017-10-05T00:36:19.946Z,12.70
2017-10-05T00:37:22.512Z,12.60
2017-10-05T00:38:25.026Z,12.70
2017-10-05T00:39:27.546Z,12.80
2017-10-05T00:40:30.051Z,12.80
2017-10-05T00:41:33.701Z,12.70
2017-10-05T00:42:37.862Z,12.70
2017-10-05T00:43:40.355Z,12.60
2017-10-05T00:44:43.614Z,12.50
2017-10-05T00:45:46.221Z,12.60
2017-10-05T00:46:49.504Z,12.70
2017-10-05T00:47:51.998Z,12.70
2017-10-05T00:48:54.503Z,12.70
2017-10-05T00:49:57.868Z,12.70
2017-10-05T00:51:00.409Z,12.70
2017-10-05T00:52:03.001Z,12.70
2017-10-05T00:53:05.521Z,12.70
2017-10-05T00:54:08.033Z,12.70
2017-10-05T00:55:10.531Z,12.80
2017-10-05T00:56:14.040Z,12.80
2017-10-05T00:57:17.325Z,12.80
2017-10-05T00:58:19.828Z,12.80
2017-10-05T00:59:22.315Z,12.80
2017-10-05T01:00:25.647Z,12.70
2017-10-05T01:01:28.218Z,12.80
2017-10-05T01:02:30.779Z,12.80
2017-10-05T01:03:33.346Z,12.70
2017-10-05T01:04:35.926Z,12.70
2017-10-05T01:05:38.541Z,12.70
2017-10-05T01:06:41.023Z,12.60
2017-10-05T01:07:50.879Z,12.50
2017-10-05T01:08:53.396Z,12.40
2017-10-05T01:09:55.986Z,12.40
2017-10-05T01:10:59.251Z,12.50
2017-10-05T01:12:01.801Z,12.50
2017-10-05T01:13:04.333Z,12.50
2017-10-05T01:14:06.846Z,12.70
2017-10-05T01:15:11.856Z,12.60
2017-10-05T01:16:14.389Z,12.60
2017-10-05T01:17:16.912Z,12.60
2017-10-05T01:18:19.383Z,12.70
2017-10-05T01:19:21.927Z,12.60
2017-10-05T01:20:24.446Z,12.50
2017-10-05T01:21:27.840Z,12.60
2017-10-05T01:22:30.372Z,12.50
2017-10-05T01:23:33.690Z,12.40
2017-10-05T01:24:37.284Z,12.40
2017-10-05T01:25:40.572Z,12.50
2017-10-05T01:26:43.132Z,12.50
2017-10-05T01:27:45.630Z,12.50
2017-10-05T01:28:48.112Z,12.60
2017-10-05T01:29:50.609Z,12.60
2017-10-05T01:30:54.732Z,12.60
2017-10-05T01:31:57.235Z,12.60
2017-10-05T01:32:59.762Z,12.50
2017-10-05T01:34:02.282Z,12.40
2017-10-05T01:35:04.794Z,12.40
2017-10-05T01:36:07.354Z,12.20
2017-10-05T01:37:10.646Z,12.10
2017-10-05T01:38:13.131Z,12.10
2017-10-05T01:39:15.633Z,12.20
2017-10-05T01:40:20.119Z,12.20
2017-10-05T01:41:22.758Z,12.30
2017-10-05T01:42:25.329Z,12.20
2017-10-05T01:43:29.088Z,12.10
2017-10-05T01:44:32.404Z,12.20
2017-10-05T01:45:34.886Z,12.20
2017-10-05T01:46:37.442Z,12.20
2017-10-05T01:47:39.914Z,12.10
2017-10-05T01:48:42.424Z,12.20
2017-10-05T01:49:44.910Z,12.20
2017-10-05T01:50:48.364Z,12.10
2017-10-05T01:51:50.884Z,12.10
2017-10-05T01:52:53.452Z,12.10
2017-10-05T01:53:56.084Z,12.10
2017-10-05T01:54:59.411Z,12.30
2017-10-05T01:56:01.886Z,12.30
2017-10-05T01:57:04.371Z,12.40
2017-10-05T01:58:06.904Z,12.20
2017-10-05T01:59:09.430Z,12.30
2017-10-05T02:00:11.925Z,12.30
2017-10-05T02:01:14.436Z,12.40
2017-10-05T02:02:16.939Z,12.40
2017-10-05T02:03:20.185Z,12.30
2017-10-05T02:04:22.716Z,12.30
2017-10-05T02:05:25.232Z,12.30
2017-10-05T02:06:27.722Z,12.20
2017-10-05T02:07:32.009Z,12.10
2017-10-05T02:08:34.502Z,12.10
2017-10-05T02:09:38.823Z,12.10
2017-10-05T02:10:41.362Z,12.10
2017-10-05T02:11:44.652Z,12.20
2017-10-05T02:12:48.015Z,12.10
2017-10-05T02:13:50.498Z,12.10
2017-10-05T02:14:53.806Z,12.20
2017-10-05T02:15:56.328Z,12.10
2017-10-05T02:16:58.841Z,12.10
2017-10-05T02:18:01.325Z,12.10
2017-10-05T02:19:03.871Z,12.20
2017-10-05T02:20:06.368Z,12.30
2017-10-05T02:21:09.006Z,12.20
2017-10-05T02:22:11.487Z,12.30
2017-10-05T02:23:14.058Z,12.30
2017-10-05T02:24:16.534Z,12.10
2017-10-05T02:25:19.006Z,12.20
2017-10-05T02:26:21.521Z,12.10
2017-10-05T02:27:24.826Z,11.90
2017-10-05T02:28:27.339Z,11.90
2017-10-05T02:29:29.953Z,12.00
2017-10-05T02:30:32.451Z,11.90
2017-10-05T02:31:34.942Z,11.90
2017-10-05T02:32:37.411Z,11.90
2017-10-05T02:33:39.931Z,11.80
2017-10-05T02:34:42.463Z,11.80
2017-10-05T02:35:45.723Z,11.90
2017-10-05T02:36:48.219Z,11.90
2017-10-05T02:37:50.799Z,11.90
2017-10-05T02:38:54.329Z,11.90
2017-10-05T02:39:56.807Z,12.00
2017-10-05T02:40:59.418Z,12.00
2017-10-05T02:42:01.990Z,12.00
2017-10-05T02:43:04.468Z,12.00
2017-10-05T02:44:06.974Z,12.00
2017-10-05T02:45:09.480Z,12.00
2017-10-05T02:46:11.979Z,12.10
2017-10-05T02:47:14.453Z,12.10
2017-10-05T02:48:16.941Z,12.10
2017-10-05T02:49:19.439Z,12.10
2017-10-05T02:50:22.008Z,12.00
2017-10-05T02:51:24.531Z,12.00
2017-10-05T02:52:27.065Z,12.10
2017-10-05T02:53:29.551Z,12.20
2017-10-05T02:54:33.439Z,12.10
2017-10-05T02:55:35.920Z,12.10
2017-10-05T02:56:38.406Z,12.20
2017-10-05T02:57:41.657Z,12.20
2017-10-05T02:58:44.130Z,12.20
2017-10-05T02:59:46.643Z,12.30
2017-10-05T03:00:49.135Z,12.30
2017-10-05T03:01:51.626Z,12.20
2017-10-05T03:02:54.149Z,12.20
2017-10-05T03:03:56.648Z,12.20
2017-10-05T03:04:59.182Z,12.20
2017-10-05T03:06:01.768Z,12.20
2017-10-05T03:07:04.317Z,12.10
2017-10-05T03:08:06.977Z,12.10
2017-10-05T03:09:09.438Z,12.20
2017-10-05T03:10:11.947Z,12.30
2017-10-05T03:11:14.449Z,12.20
2017-10-05T03:12:17.687Z,12.20
2017-10-05T03:13:20.162Z,12.20
2017-10-05T03:14:22.687Z,12.30
2017-10-05T03:15:25.370Z,12.40
2017-10-05T03:16:28.032Z,12.40
2017-10-05T03:17:30.521Z,12.50
2017-10-05T03:18:33.056Z,12.60
2017-10-05T03:19:35.623Z,12.60
2017-10-05T03:20:38.130Z,12.60
2017-10-05T03:21:40.626Z,12.60
2017-10-05T03:22:43.882Z,12.60
2017-10-05T03:23:46.406Z,12.60
2017-10-05T03:24:48.971Z,12.50
2017-10-05T03:25:51.537Z,12.40
2017-10-05T03:26:55.115Z,12.30
2017-10-05T03:27:58.416Z,12.30
2017-10-05T03:29:01.035Z,12.20
2017-10-05T03:30:03.556Z,12.20
2017-10-05T03:31:08.009Z,12.20
2017-10-05T03:32:10.625Z,12.20
2017-10-05T03:33:13.161Z,12.20
2017-10-05T03:34:16.507Z,12.20
2017-10-05T03:35:19.106Z,12.20
2017-10-05T03:36:22.748Z,12.30
2017-10-05T03:37:25.237Z,12.20
2017-10-05T03:38:27.737Z,12.10
2017-10-05T03:39:31.038Z,12.30
2017-10-05T03:40:34.377Z,12.00
2017-10-05T03:41:37.876Z,12.00
2017-10-05T03:42:40.403Z,12.10
2017-10-05T03:43:43.103Z,12.00
2017-10-05T03:44:45.687Z,12.00
2017-10-05T03:45:48.236Z,12.10
2017-10-05T03:46:50.793Z,12.20
2017-10-05T03:47:53.354Z,11.80
2017-10-05T03:48:55.892Z,11.80
2017-10-05T03:49:58.372Z,11.90
2017-10-05T03:51:03.695Z,11.90
2017-10-05T03:52:06.333Z,12.00
2017-10-05T03:53:09.622Z,12.10
2017-10-05T03:54:12.880Z,12.00
2017-10-05T03:55:15.440Z,12.00
2017-10-05T03:56:19.793Z,12.10
2017-10-05T03:57:23.381Z,12.10
2017-10-05T03:58:26.694Z,12.10
2017-10-05T03:59:29.217Z,12.10
2017-10-05T04:00:32.651Z,12.20
2017-10-05T04:01:35.192Z,12.20
2017-10-05T04:02:37.738Z,12.30
2017-10-05T04:03:41.230Z,11.90
2017-10-05T04:04:44.683Z,12.00
2017-10-05T04:05:47.278Z,12.00
2017-10-05T04:06:50.874Z,12.10
2017-10-05T04:07:54.355Z,12.30
2017-10-05T04:09:02.902Z,12.40
2017-10-05T04:10:05.477Z,12.40
2017-10-05T04:11:07.964Z,12.40
2017-10-05T04:12:10.772Z,12.40
2017-10-05T04:13:14.220Z,12.40
2017-10-05T04:14:16.708Z,12.40
2017-10-05T04:15:19.515Z,12.40
2017-10-05T04:16:23.319Z,12.40
2017-10-05T04:17:25.832Z,12.40
2017-10-05T04:18:28.365Z,12.50
2017-10-05T04:19:31.220Z,12.50
2017-10-05T04:20:33.892Z,12.60
2017-10-05T04:21:37.484Z,12.30
2017-10-05T04:22:40.046Z,12.30
2017-10-05T04:23:42.562Z,12.30
2017-10-05T04:24:45.031Z,12.40
2017-10-05T04:25:48.427Z,12.40
2017-10-05T04:26:52.423Z,12.40
2017-10-05T04:27:54.982Z,12.40
2017-10-05T04:28:57.609Z,12.60
2017-10-05T04:30:00.094Z,12.60
2017-10-05T04:31:02.612Z,12.40
2017-10-05T04:32:06.029Z,12.40
2017-10-05T04:33:08.594Z,12.40
2017-10-05T04:34:11.358Z,12.40
2017-10-05T04:35:13.828Z,12.40
2017-10-05T04:36:16.334Z,12.40
2017-10-05T04:37:18.831Z,12.50
2017-10-05T04:38:22.087Z,12.50
2017-10-05T04:39:24.605Z,12.50
2017-10-05T04:40:27.183Z,12.50
2017-10-05T04:41:29.736Z,12.40
2017-10-05T04:42:32.742Z,12.40
2017-10-05T04:43:35.227Z,12.40
2017-10-05T04:44:37.721Z,12.40
2017-10-05T04:45:41.027Z,12.40
2017-10-05T04:46:44.715Z,12.40
2017-10-05T04:47:47.191Z,12.50
2017-10-05T04:48:49.719Z,12.40
2017-10-05T04:49:52.213Z,12.50
2017-10-05T04:50:54.715Z,12.50
2017-10-05T04:51:57.220Z,12.50
2017-10-05T04:53:01.081Z,12.30
2017-10-05T04:54:03.559Z,12.30
2017-10-05T04:55:06.065Z,12.30
2017-10-05T04:56:08.590Z,12.30
2017-10-05T04:57:11.087Z,12.40
2017-10-05T04:58:14.391Z,12.40
2017-10-05T04:59:16.875Z,12.40
2017-10-05T05:00:19.352Z,12.40
2017-10-05T05:01:21.838Z,12.40
2017-10-05T05:02:24.398Z,12.60
2017-10-05T05:03:26.884Z,12.50
2017-10-05T05:04:29.996Z,12.60
2017-10-05T05:05:32.512Z,12.60
2017-10-05T05:06:34.999Z,12.60
2017-10-05T05:07:37.499Z,12.60
2017-10-05T05:08:40.108Z,12.60
2017-10-05T05:09:42.629Z,12.60
2017-10-05T05:10:45.104Z,12.60
2017-10-05T05:11:47.605Z,12.60
2017-10-05T05:12:50.194Z,12.70
2017-10-05T05:13:53.482Z,12.60
2017-10-05T05:14:56.716Z,12.60
2017-10-05T05:15:59.246Z,12.60
2017-10-05T05:17:02.506Z,12.70
2017-10-05T05:18:05.006Z,12.60
2017-10-05T05:19:07.488Z,12.70
2017-10-05T05:20:09.971Z,12.70
2017-10-05T05:21:12.449Z,12.70
2017-10-05T05:22:14.943Z,12.60
2017-10-05T05:23:18.182Z,12.70
2017-10-05T05:24:20.987Z,12.70
2017-10-05T05:25:23.591Z,12.60
2017-10-05T05:26:29.517Z,12.60
2017-10-05T05:27:32.923Z,12.70
2017-10-05T05:28:36.318Z,12.70
2017-10-05T05:29:38.985Z,12.80
2017-10-05T05:30:42.540Z,12.70
2017-10-05T05:31:45.015Z,12.70
2017-10-05T05:32:48.254Z,12.80
2017-10-05T05:33:50.726Z,12.80
2017-10-05T05:34:53.222Z,12.80
2017-10-05T05:35:56.475Z,12.70
2017-10-05T05:36:58.954Z,12.70
2017-10-05T05:38:01.427Z,12.70
2017-10-05T05:39:04.837Z,12.70
2017-10-05T05:40:08.079Z,12.60
2017-10-05T05:41:10.661Z,12.60
2017-10-05T05:42:14.020Z,12.80
2017-10-05T05:43:16.504Z,12.80
2017-10-05T05:44:20.754Z,12.80
2017-10-05T05:45:24.282Z,12.80
2017-10-05T05:46:26.766Z,12.70
2017-10-05T05:47:29.302Z,12.80
2017-10-05T05:48:31.791Z,12.80
2017-10-05T05:49:34.279Z,12.80
2017-10-05T05:50:37.532Z,12.70
2017-10-05T05:51:40.025Z,12.70
2017-10-05T05:52:43.294Z,12.80
2017-10-05T05:53:45.778Z,12.80
2017-10-05T05:54:49.984Z,12.70
2017-10-05T05:55:53.348Z,12.70
2017-10-05T05:56:55.852Z,12.80
2017-10-05T05:57:58.502Z,12.80
2017-10-05T05:59:01.123Z,12.80
2017-10-05T06:00:03.641Z,12.80
2017-10-05T06:01:06.156Z,12.90
2017-10-05T06:02:08.654Z,12.80
2017-10-05T06:03:11.191Z,12.80
2017-10-05T06:04:13.888Z,12.90
2017-10-05T06:05:16.391Z,12.90
2017-10-05T06:06:18.880Z,12.90
2017-10-05T06:07:22.765Z,12.90
2017-10-05T06:08:26.016Z,12.80
2017-10-05T06:09:28.515Z,12.80
2017-10-05T06:10:32.749Z,12.80
2017-10-05T06:11:35.282Z,12.80
2017-10-05T06:12:38.563Z,12.80
2017-10-05T06:13:44.835Z,12.80
2017-10-05T06:14:47.381Z,12.80
2017-10-05T06:15:50.430Z,12.80
2017-10-05T06:16:53.437Z,12.80
2017-10-05T06:17:56.220Z,12.70
2017-10-05T06:18:58.898Z,12.60
2017-10-05T06:20:02.310Z,12.60
2017-10-05T06:21:04.847Z,12.60
2017-10-05T06:22:07.345Z,12.60
2017-10-05T06:23:10.002Z,12.70
2017-10-05T06:24:12.488Z,12.70
2017-10-05T06:25:14.984Z,12.70
2017-10-05T06:26:18.223Z,12.70
2017-10-05T06:27:20.752Z,12.70
2017-10-05T06:28:24.141Z,12.70
2017-10-05T06:29:26.670Z,12.70
2017-10-05T06:30:29.945Z,12.70
2017-10-05T06:31:32.593Z,12.70
2017-10-05T06:32:35.119Z,12.70
2017-10-05T06:33:37.656Z,12.70
2017-10-05T06:34:40.913Z,12.70
2017-10-05T06:35:43.483Z,12.70
2017-10-05T06:36:45.958Z,12.80
2017-10-05T06:37:49.956Z,12.70
2017-10-05T06:38:52.475Z,12.60
2017-10-05T06:39:54.970Z,12.60
2017-10-05T06:40:57.462Z,12.70
2017-10-05T06:41:59.949Z,12.70
2017-10-05T06:43:03.200Z,12.60
2017-10-05T06:44:05.814Z,12.50
2017-10-05T06:45:08.387Z,12.50
2017-10-05T06:46:11.975Z,12.40
2017-10-05T06:47:14.488Z,12.30
2017-10-05T06:48:16.987Z,12.30
2017-10-05T06:49:20.247Z,12.20
2017-10-05T06:50:23.715Z,12.20
2017-10-05T06:51:26.225Z,12.20
2017-10-05T06:52:30.463Z,12.20
2017-10-05T06:53:32.949Z,12.20
2017-10-05T06:54:35.478Z,12.20
2017-10-05T06:55:38.017Z,12.20
2017-10-05T06:56:41.431Z,12.10
2017-10-05T06:57:43.914Z,12.10
2017-10-05T06:58:46.461Z,12.10
2017-10-05T06:59:49.364Z,12.10
2017-10-05T07:00:51.831Z,12.10
2017-10-05T07:01:54.379Z,12.10
2017-10-05T07:02:56.863Z,12.10
2017-10-05T07:03:59.342Z,12.20
2017-10-05T07:05:01.867Z,12.10
2017-10-05T07:06:04.407Z,12.20
2017-10-05T07:07:09.050Z,12.30
2017-10-05T07:08:11.556Z,12.20
2017-10-05T07:09:14.036Z,12.20
2017-10-05T07:10:17.306Z,12.20
2017-10-05T07:11:19.889Z,12.20
2017-10-05T07:12:22.497Z,12.20
2017-10-05T07:13:24.988Z,12.30
2017-10-05T07:14:27.495Z,12.40
2017-10-05T07:15:30.004Z,12.60
2017-10-05T07:16:32.503Z,12.60
2017-10-05T07:17:35.995Z,12.50
2017-10-05T07:18:38.938Z,12.50
2017-10-05T07:19:41.488Z,12.50
2017-10-05T07:20:44.033Z,12.50
2017-10-05T07:21:47.571Z,12.60
2017-10-05T07:22:50.080Z,12.60
2017-10-05T07:23:53.659Z,12.70
2017-10-05T07:24:57.563Z,12.90
2017-10-05T07:26:00.065Z,12.80
2017-10-05T07:27:02.555Z,12.90
2017-10-05T07:28:05.115Z,12.90
2017-10-05T07:29:07.624Z,12.80
2017-10-05T07:30:10.115Z,12.80
2017-10-05T07:31:12.693Z,12.80
2017-10-05T07:32:15.152Z,12.80
2017-10-05T07:33:17.636Z,12.80
2017-10-05T07:34:20.139Z,12.70
2017-10-05T07:35:23.677Z,12.70
2017-10-05T07:36:26.350Z,12.70
2017-10-05T07:37:28.844Z,12.70
2017-10-05T07:38:31.513Z,12.70
2017-10-05T07:39:34.021Z,12.70
2017-10-05T07:40:37.515Z,12.60
2017-10-05T07:41:40.828Z,12.70
2017-10-05T07:42:43.487Z,12.70
2017-10-05T07:43:46.059Z,12.60
2017-10-05T07:44:48.544Z,12.60
2017-10-05T07:45:51.085Z,12.50
2017-10-05T07:46:53.679Z,12.50
2017-10-05T07:47:56.150Z,12.50
2017-10-05T07:48:58.637Z,12.50
2017-10-05T07:50:01.132Z,12.50
2017-10-05T07:51:04.390Z,12.50
2017-10-05T07:52:07.668Z,12.50
2017-10-05T07:53:11.137Z,12.50
2017-10-05T07:54:13.636Z,12.50
2017-10-05T07:55:16.143Z,12.50
2017-10-05T07:56:18.616Z,12.60
2017-10-05T07:57:21.300Z,12.60
2017-10-05T07:58:23.834Z,12.60
2017-10-05T07:59:26.847Z,12.60
2017-10-05T08:00:29.376Z,12.60
2017-10-05T08:01:31.946Z,12.60
2017-10-05T08:02:34.431Z,12.60
2017-10-05T08:03:36.977Z,12.60
2017-10-05T08:04:39.817Z,12.70
2017-10-05T08:05:42.417Z,12.70
2017-10-05T08:06:44.894Z,12.70
2017-10-05T08:07:47.450Z,12.80
2017-10-05T08:08:50.013Z,12.80
2017-10-05T08:09:52.580Z,12.80
2017-10-05T08:10:55.147Z,12.80
2017-10-05T08:11:59.455Z,12.80
2017-10-05T08:13:02.024Z,12.80
2017-10-05T08:14:04.597Z,12.80
2017-10-05T08:15:07.167Z,12.80
2017-10-05T08:16:09.665Z,12.90
2017-10-05T08:17:12.155Z,12.90
2017-10-05T08:18:15.477Z,12.90
2017-10-05T08:19:18.019Z,12.90
2017-10-05T08:20:21.282Z,12.90
2017-10-05T08:21:23.771Z,12.90
2017-10-05T08:22:27.070Z,12.90
2017-10-05T08:23:29.587Z,12.90
2017-10-05T08:24:32.821Z,13.00
2017-10-05T08:25:35.307Z,13.00
2017-10-05T08:26:37.815Z,13.00
2017-10-05T08:27:41.852Z,13.10
2017-10-05T08:28:44.357Z,13.10
2017-10-05T08:29:46.880Z,13.10
2017-10-05T08:30:49.431Z,13.10
2017-10-05T08:31:51.962Z,13.10
2017-10-05T08:32:54.477Z,13.20
2017-10-05T08:33:57.002Z,13.30
2017-10-05T08:35:00.600Z,13.40
2017-10-05T08:36:04.072Z,13.40
2017-10-05T08:37:06.605Z,13.40
2017-10-05T08:38:09.115Z,13.40
2017-10-05T08:39:11.623Z,13.40
2017-10-05T08:40:14.147Z,13.50
2017-10-05T08:41:18.450Z,13.50
2017-10-05T08:42:21.098Z,13.50
2017-10-05T08:43:23.641Z,13.50
2017-10-05T08:44:26.241Z,13.60
2017-10-05T08:45:28.725Z,13.60
2017-10-05T08:46:31.211Z,13.60
2017-10-05T08:47:34.568Z,13.70
2017-10-05T08:48:37.139Z,13.70
2017-10-05T08:49:39.680Z,13.80
2017-10-05T08:50:42.183Z,13.80
2017-10-05T08:51:45.495Z,13.80
2017-10-05T08:52:48.061Z,13.80
2017-10-05T08:53:50.589Z,13.90
2017-10-05T08:54:53.107Z,13.90
2017-10-05T08:55:55.595Z,14.00
2017-10-05T08:56:58.263Z,13.90
2017-10-05T08:58:00.751Z,13.80
2017-10-05T08:59:03.378Z,13.80
2017-10-05T09:00:05.888Z,13.90
2017-10-05T09:01:08.365Z,13.80
2017-10-05T09:02:11.617Z,13.90
2017-10-05T09:03:14.089Z,13.90
2017-10-05T09:04:16.610Z,13.90
2017-10-05T09:05:19.173Z,14.00
2017-10-05T09:06:22.142Z,14.00
2017-10-05T09:07:24.619Z,14.10
2017-10-05T09:08:27.165Z,14.10
2017-10-05T09:09:30.424Z,14.30
2017-10-05T09:10:33.724Z,14.20
2017-10-05T09:11:36.991Z,14.30
2017-10-05T09:12:39.494Z,14.30
2017-10-05T09:13:42.100Z,14.20
2017-10-05T09:14:44.629Z,14.20
2017-10-05T09:15:47.196Z,14.20
2017-10-05T09:16:50.183Z,14.20
2017-10-05T09:17:52.685Z,14.30
2017-10-05T09:18:55.220Z,14.40
2017-10-05T09:19:58.155Z,14.40
2017-10-05T09:21:01.403Z,14.50
2017-10-05T09:22:03.945Z,14.50
2017-10-05T09:23:06.451Z,14.60
2017-10-05T09:24:08.964Z,14.60
2017-10-05T09:25:11.530Z,14.60
2017-10-05T09:26:14.003Z,14.60
2017-10-05T09:27:17.229Z,14.60
2017-10-05T09:28:19.760Z,14.70
2017-10-05T09:29:22.254Z,14.60
2017-10-05T09:30:24.743Z,14.60
2017-10-05T09:31:28.065Z,14.70
2017-10-05T09:32:30.623Z,14.60
2017-10-05T09:33:33.191Z,14.70
2017-10-05T09:34:35.682Z,14.60
2017-10-05T09:35:38.184Z,14.50
2017-10-05T09:36:40.718Z,14.50
2017-10-05T09:37:43.226Z,14.60
2017-10-05T09:38:46.523Z,14.80
2017-10-05T09:39:49.164Z,14.80
2017-10-05T09:40:51.669Z,14.80
2017-10-05T09:41:55.157Z,14.80
2017-10-05T09:42:57.639Z,14.80
2017-10-05T09:44:00.143Z,14.80
2017-10-05T09:45:02.654Z,14.80
2017-10-05T09:46:05.135Z,14.70
2017-10-05T09:47:07.686Z,14.70
2017-10-05T09:48:10.188Z,14.70
2017-10-05T09:49:12.698Z,14.60
2017-10-05T09:50:16.011Z,14.40
2017-10-05T09:51:18.572Z,14.40
2017-10-05T09:52:21.134Z,14.30
2017-10-05T09:53:23.603Z,14.20
2017-10-05T09:54:26.164Z,14.10
2017-10-05T09:55:28.665Z,14.10
2017-10-05T09:56:31.205Z,14.10
2017-10-05T09:57:33.690Z,14.10
2017-10-05T09:58:36.230Z,14.10
2017-10-05T09:59:38.734Z,14.10
2017-10-05T10:00:41.285Z,14.30
2017-10-05T10:01:43.758Z,14.40
2017-10-05T10:02:47.390Z,14.60
2017-10-05T10:03:50.720Z,14.80
2017-10-05T10:04:54.376Z,14.90
2017-10-05T10:05:57.691Z,14.90
2017-10-05T10:07:00.175Z,14.90
2017-10-05T10:08:02.649Z,14.90
2017-10-05T10:09:05.339Z,15.00
2017-10-05T10:10:07.830Z,15.00
2017-10-05T10:11:11.158Z,15.10
2017-10-05T10:12:13.655Z,15.10
2017-10-05T10:13:16.158Z,15.30
2017-10-05T10:14:19.691Z,15.40
2017-10-05T10:15:22.174Z,15.60
2017-10-05T10:16:24.690Z,15.70
2017-10-05T10:17:27.205Z,15.90
2017-10-05T10:18:29.849Z,16.00
2017-10-05T10:19:32.338Z,16.00
2017-10-05T10:20:35.663Z,15.90
2017-10-05T10:21:38.298Z,15.90
2017-10-05T10:22:40.784Z,15.90
2017-10-05T10:23:44.030Z,15.70
2017-10-05T10:24:46.520Z,15.70
2017-10-05T10:25:49.778Z,15.60
2017-10-05T10:26:52.276Z,15.60
2017-10-05T10:27:55.578Z,15.60
2017-10-05T10:28:58.147Z,15.60
2017-10-05T10:30:00.627Z,15.80
2017-10-05T10:31:03.605Z,15.80
2017-10-05T10:32:06.106Z,15.80
2017-10-05T10:33:08.608Z,15.80
2017-10-05T10:34:11.184Z,15.90
2017-10-05T10:35:13.655Z,15.90
2017-10-05T10:36:16.215Z,16.00
2017-10-05T10:37:18.692Z,16.20
2017-10-05T10:38:21.350Z,16.20
2017-10-05T10:39:23.864Z,16.40
2017-10-05T10:40:26.379Z,16.50
2017-10-05T10:41:28.852Z,16.70
2017-10-05T10:42:31.349Z,16.80
2017-10-05T10:43:33.840Z,16.70
2017-10-05T10:44:36.445Z,16.70
2017-10-05T10:45:38.931Z,16.50
2017-10-05T10:46:41.412Z,16.40
2017-10-05T10:47:43.971Z,16.40
2017-10-05T10:48:46.611Z,16.40
2017-10-05T10:49:49.235Z,16.50
2017-10-05T10:50:51.788Z,16.50
2017-10-05T10:51:54.290Z,16.50
2017-10-05T10:52:57.548Z,16.60
2017-10-05T10:54:00.066Z,16.50
2017-10-05T10:55:02.563Z,16.70
2017-10-05T10:56:05.092Z,16.60
2017-10-05T10:57:07.575Z,16.50
2017-10-05T10:58:10.065Z,16.50
2017-10-05T10:59:12.554Z,16.40
2017-10-05T11:00:15.035Z,16.40
2017-10-05T11:01:18.289Z,16.30
2017-10-05T11:02:20.911Z,16.30
2017-10-05T11:03:27.520Z,16.20
2017-10-05T11:04:30.005Z,15.90
2017-10-05T11:05:33.292Z,15.60
2017-10-05T11:06:36.607Z,15.50
2017-10-05T11:07:39.272Z,15.50
2017-10-05T11:08:42.045Z,15.50
2017-10-05T11:09:44.554Z,15.60
2017-10-05T11:10:47.046Z,15.80
2017-10-05T11:11:49.582Z,15.90
2017-10-05T11:12:52.152Z,15.80
2017-10-05T11:13:54.668Z,15.80
2017-10-05T11:14:57.238Z,15.70
2017-10-05T11:15:59.714Z,15.60
2017-10-05T11:17:02.443Z,15.60
2017-10-05T11:18:04.973Z,15.50
2017-10-05T11:19:07.465Z,15.60
2017-10-05T11:20:09.935Z,15.50
2017-10-05T11:21:12.439Z,15.60
2017-10-05T11:22:14.936Z,15.80
2017-10-05T11:23:18.794Z,16.10
2017-10-05T11:24:21.367Z,16.50
2017-10-05T11:25:23.852Z,16.80
2017-10-05T11:26:26.356Z,17.00
2017-10-05T11:27:28.863Z,17.00
2017-10-05T11:28:31.382Z,17.00
2017-10-05T11:29:33.995Z,17.00
2017-10-05T11:30:36.496Z,16.80
2017-10-05T11:31:39.073Z,16.60
2017-10-05T11:32:41.698Z,16.20
2017-10-05T11:33:45.102Z,15.40
2017-10-05T11:34:47.614Z,14.70
2017-10-05T11:35:50.876Z,14.00
2017-10-05T11:36:53.521Z,14.00
2017-10-05T11:37:56.185Z,13.80
2017-10-05T11:38:58.688Z,13.70
2017-10-05T11:40:01.315Z,13.70
2017-10-05T11:41:03.872Z,13.70
2017-10-05T11:42:06.393Z,13.80
2017-10-05T11:43:08.900Z,13.90
2017-10-05T11:44:11.397Z,14.10
2017-10-05T11:45:13.881Z,14.10
2017-10-05T11:46:17.880Z,14.10
2017-10-05T11:47:20.467Z,14.10
2017-10-05T11:48:23.081Z,14.10
2017-10-05T11:49:25.634Z,14.00
2017-10-05T11:50:28.175Z,14.00
2017-10-05T11:51:31.653Z,13.90
2017-10-05T11:52:34.973Z,14.00
2017-10-05T11:53:38.668Z,14.00
2017-10-05T11:54:41.172Z,14.00
2017-10-05T11:55:43.713Z,14.00
2017-10-05T11:56:46.270Z,14.00
2017-10-05T11:57:48.907Z,13.80
2017-10-05T11:58:52.148Z,13.80
2017-10-05T11:59:55.605Z,13.70
2017-10-05T12:00:58.279Z,13.80
2017-10-05T12:02:00.764Z,14.00
2017-10-05T12:03:03.283Z,14.20
2017-10-05T12:04:06.731Z,14.20
2017-10-05T12:05:09.368Z,14.20
2017-10-05T12:06:11.908Z,14.10
2017-10-05T12:07:15.447Z,14.10
2017-10-05T12:08:17.954Z,13.90
2017-10-05T12:09:21.264Z,13.90
2017-10-05T12:10:24.793Z,13.90
2017-10-05T12:11:27.462Z,13.80
2017-10-05T12:12:30.096Z,13.80
2017-10-05T12:13:32.616Z,13.80
2017-10-05T12:14:35.742Z,13.80
2017-10-05T12:15:38.237Z,13.80
2017-10-05T12:16:41.195Z,13.90
2017-10-05T12:17:43.683Z,14.00
2017-10-05T12:18:46.175Z,14.10
2017-10-05T12:19:49.475Z,14.40
2017-10-05T12:20:52.878Z,14.60
2017-10-05T12:21:55.368Z,14.60
2017-10-05T12:22:57.942Z,14.50
2017-10-05T12:24:00.561Z,14.40
2017-10-05T12:25:03.971Z,14.00
2017-10-05T12:26:06.455Z,14.00
2017-10-05T12:27:09.002Z,13.90
2017-10-05T12:28:11.504Z,13.90
2017-10-05T12:29:13.996Z,13.90
2017-10-05T12:30:17.273Z,14.10
2017-10-05T12:31:19.790Z,14.10
2017-10-05T12:32:22.276Z,14.10
2017-10-05T12:33:24.801Z,14.20
2017-10-05T12:34:27.289Z,14.30
2017-10-05T12:35:29.773Z,14.20
2017-10-05T12:36:32.291Z,14.30
2017-10-05T12:37:35.555Z,14.20
2017-10-05T12:38:38.815Z,14.10
2017-10-05T12:39:41.347Z,14.10
2017-10-05T12:40:44.527Z,14.00
2017-10-05T12:41:47.064Z,13.90
2017-10-05T12:42:50.470Z,13.50
2017-10-05T12:43:53.036Z,13.50
2017-10-05T12:44:56.710Z,13.40
2017-10-05T12:46:00.976Z,13.00
2017-10-05T12:47:04.014Z,13.00
2017-10-05T12:48:06.504Z,13.00
2017-10-05T12:49:08.983Z,12.80
2017-10-05T12:50:11.488Z,12.70
2017-10-05T12:51:14.749Z,12.60
2017-10-05T12:52:17.430Z,12.50
2017-10-05T12:53:20.677Z,12.60
2017-10-05T12:54:23.151Z,12.50
2017-10-05T12:55:25.639Z,12.60
2017-10-05T12:56:28.836Z,12.70
2017-10-05T12:57:33.148Z,13.00
2017-10-05T12:58:36.407Z,13.20
2017-10-05T12:59:38.924Z,13.20
2017-10-05T13:00:42.511Z,13.50
2017-10-05T13:01:45.025Z,13.70
2017-10-05T13:02:47.558Z,13.90
2017-10-05T13:03:50.030Z,14.10
2017-10-05T13:04:52.534Z,14.30
2017-10-05T13:05:55.044Z,14.40
2017-10-05T13:06:57.598Z,14.50
2017-10-05T13:08:00.120Z,14.50
2017-10-05T13:09:02.672Z,14.50
2017-10-05T13:10:05.314Z,14.50
2017-10-05T13:11:09.303Z,14.70
2017-10-05T13:12:11.788Z,14.80
2017-10-05T13:13:14.287Z,14.70
2017-10-05T13:14:16.774Z,14.60
2017-10-05T13:15:20.023Z,14.40
2017-10-05T13:16:27.050Z,14.30
2017-10-05T13:17:29.547Z,14.20
2017-10-05T13:18:32.100Z,14.00
2017-10-05T13:19:34.626Z,13.80
2017-10-05T13:20:37.944Z,13.50
2017-10-05T13:21:40.482Z,13.50
2017-10-05T13:22:43.817Z,13.30
2017-10-05T13:23:46.317Z,13.30
2017-10-05T13:24:49.587Z,13.30
2017-10-05T13:25:52.102Z,13.30
2017-10-05T13:26:54.617Z,13.30
2017-10-05T13:27:57.110Z,13.30
2017-10-05T13:29:00.374Z,13.40